Time;durP1;ratioP1;P1;durP2;ratioP2;P2;SDS_P1;SDS_P2;PMS_P1;PMS_P2;Temp;Humidity;BMP_temperature;BMP_pressure;BME280_temperature;BME280_humidity;BME280_pressure;Samples;Min_cycle;Max_cycle;Signal;HPM_P1;HPM_P2
2022/10/15 00:00:44;;;;;;;21.42;14.80;;;;;;;;;;5059452;28;20021;-77
2022/10/15 00:03:10;;;;;;;25.20;14.35;;;;;;;;;;5059858;28;20032;-78
2022/10/15 00:05:37;;;;;;;22.73;14.50;;;;;;;;;;5059987;28;20028;-77
2022/10/15 00:08:03;;;;;;;20.52;13.45;;;;;;;;;;5059905;28;20323;-77
2022/10/15 00:10:29;;;;;;;23.65;13.55;;;;;;;;;;5059309;28;20099;-77
2022/10/15 00:12:55;;;;;;;22.50;13.73;;;;;;;;;;5059644;28;20029;-77
2022/10/15 00:15:21;;;;;;;22.83;13.35;;;;;;;;;;5059363;28;20029;-77
2022/10/15 00:17:47;;;;;;;20.10;14.30;;;;;;;;;;5059550;28;20025;-77
2022/10/15 00:20:14;;;;;;;22.42;12.80;;;;;;;;;;5042831;28;20035;-77
2022/10/15 00:22:40;;;;;;;19.60;12.52;;;;;;;;;;5059182;28;20414;-77
2022/10/15 00:25:06;;;;;;;20.52;13.70;;;;;;;;;;5059504;28;20031;-76
2022/10/15 00:27:33;;;;;;;22.75;13.10;;;;;;;;;;5059434;28;20083;-77
2022/10/15 00:29:59;;;;;;;19.92;12.80;;;;;;;;;;5059246;28;20059;-76
2022/10/15 00:32:25;;;;;;;20.65;12.20;;;;;;;;;;5059441;28;20029;-78
2022/10/15 00:34:51;;;;;;;21.45;13.45;;;;;;;;;;5059331;28;20039;-77
2022/10/15 00:37:17;;;;;;;21.38;12.98;;;;;;;;;;5059199;28;20025;-77
2022/10/15 00:39:43;;;;;;;18.55;11.88;;;;;;;;;;5059228;28;20025;-77
2022/10/15 00:42:10;;;;;;;24.73;12.57;;;;;;;;;;5058675;28;20044;-77
2022/10/15 00:44:37;;;;;;;18.40;12.07;;;;;;;;;;5058854;28;20327;-77
2022/10/15 00:47:03;;;;;;;18.92;12.40;;;;;;;;;;5059133;28;20021;-76
2022/10/15 00:49:34;;;;;;;20.42;13.43;;;;;;;;;;5058865;28;20047;-76
2022/10/15 00:52:01;;;;;;;22.27;14.32;;;;;;;;;;5058401;28;20124;-76
2022/10/15 00:54:29;;;;;;;22.67;15.35;;;;;;;;;;5058786;28;20047;-76
2022/10/15 00:56:55;;;;;;;22.02;16.60;;;;;;;;;;5058598;28;20423;-77
2022/10/15 00:59:24;;;;;;;23.80;17.58;;;;;;;;;;5059168;28;20354;-77
2022/10/15 01:01:50;;;;;;;25.55;18.67;;;;;;;;;;5058280;28;20032;-77
2022/10/15 01:04:17;;;;;;;32.47;21.17;;;;;;;;;;5058768;28;20027;-77
2022/10/15 01:06:43;;;;;;;28.65;23.23;;;;;;;;;;5058736;28;20304;-77
2022/10/15 01:09:09;;;;;;;32.53;25.08;;;;;;;;;;5058946;28;20025;-77
2022/10/15 01:11:46;;;;;;;35.03;25.55;;;;;;;;;;5058059;28;20460;-77
2022/10/15 01:14:15;;;;;;;36.08;26.95;;;;;;;;;;5055761;28;20065;-77
2022/10/15 01:16:48;;;;;;;39.03;30.48;;;;;;;;;;5058624;28;20107;-77
2022/10/15 01:19:20;;;;;;;42.72;33.75;;;;;;;;;;5057643;28;20108;-77
2022/10/15 01:22:07;;;;;;;45.50;33.92;;;;;;;;;;5063240;28;20021;-77
2022/10/15 01:24:43;;;;;;;47.08;33.70;;;;;;;;;;5058457;28;20033;-77
2022/10/15 01:27:09;;;;;;;45.40;35.38;;;;;;;;;;5058084;28;20017;-77
2022/10/15 01:29:54;;;;;;;51.17;36.97;;;;;;;;;;5057700;28;20431;-76
2022/10/15 01:32:23;;;;;;;47.17;36.30;;;;;;;;;;5057668;28;20419;-77
2022/10/15 01:34:49;;;;;;;43.00;34.92;;;;;;;;;;5057357;28;20040;-77
2022/10/15 01:37:18;;;;;;;44.13;35.28;;;;;;;;;;5057878;28;20076;-77
2022/10/15 01:39:48;;;;;;;48.22;36.38;;;;;;;;;;5058166;28;20422;-77
2022/10/15 01:42:27;;;;;;;48.80;37.97;;;;;;;;;;5058246;28;20051;-77
2022/10/15 01:44:56;;;;;;;51.03;37.03;;;;;;;;;;5058343;28;20025;-77
2022/10/15 01:47:24;;;;;;;45.45;36.97;;;;;;;;;;5057813;28;20032;-77
2022/10/15 01:49:52;;;;;;;51.03;37.78;;;;;;;;;;5057679;28;20314;-77
2022/10/15 01:52:24;;;;;;;45.88;37.63;;;;;;;;;;5057431;28;20073;-77
2022/10/15 01:54:52;;;;;;;51.55;39.90;;;;;;;;;;5057782;28;20489;-76
2022/10/15 01:57:18;;;;;;;52.25;42.72;;;;;;;;;;5057427;28;20410;-76
2022/10/15 01:59:45;;;;;;;53.75;42.95;;;;;;;;;;5057545;28;20032;-76
2022/10/15 02:02:11;;;;;;;60.22;46.83;;;;;;;;;;5057550;28;20013;-75
2022/10/15 02:04:37;;;;;;;69.47;49.67;;;;;;;;;;5057211;28;20061;-76
2022/10/15 02:07:05;;;;;;;59.22;49.20;;;;;;;;;;5057428;28;20068;-76
2022/10/15 02:09:34;;;;;;;68.07;51.75;;;;;;;;;;5057730;28;20028;-76
2022/10/15 02:12:06;;;;;;;67.68;51.65;;;;;;;;;;5057069;28;20096;-76
2022/10/15 02:14:49;;;;;;;62.90;51.63;;;;;;;;;;5057158;28;20167;-76
2022/10/15 02:17:17;;;;;;;67.97;52.22;;;;;;;;;;5057199;28;20020;-76
2022/10/15 02:19:43;;;;;;;74.75;54.38;;;;;;;;;;5040895;28;20029;-77
2022/10/15 02:22:13;;;;;;;63.25;50.78;;;;;;;;;;5048267;28;20040;-77
2022/10/15 02:24:42;;;;;;;66.65;50.50;;;;;;;;;;5057435;28;20067;-78
2022/10/15 02:27:10;;;;;;;63.53;49.15;;;;;;;;;;5057121;28;20258;-78
2022/10/15 02:29:37;;;;;;;61.72;47.65;;;;;;;;;;5057374;28;20418;-77
2022/10/15 02:32:05;;;;;;;59.88;46.17;;;;;;;;;;5056980;28;20039;-78
2022/10/15 02:34:32;;;;;;;57.05;45.05;;;;;;;;;;5056776;28;20037;-78
2022/10/15 02:37:01;;;;;;;58.63;44.97;;;;;;;;;;5057155;28;20047;-78
2022/10/15 02:39:27;;;;;;;54.88;42.28;;;;;;;;;;5056727;28;20025;-78
2022/10/15 02:41:53;;;;;;;54.03;41.75;;;;;;;;;;5054280;28;20037;-77
2022/10/15 02:44:20;;;;;;;56.38;41.35;;;;;;;;;;5055691;28;20036;-78
2022/10/15 02:46:46;;;;;;;60.42;41.88;;;;;;;;;;5056669;28;20021;-77
2022/10/15 02:49:12;;;;;;;55.80;37.85;;;;;;;;;;5056867;28;20033;-78
2022/10/15 02:51:38;;;;;;;52.22;38.63;;;;;;;;;;5056869;28;20032;-78
2022/10/15 02:54:05;;;;;;;49.10;38.50;;;;;;;;;;5056410;28;20072;-78
2022/10/15 02:56:31;;;;;;;50.28;37.53;;;;;;;;;;5056468;28;20036;-78
2022/10/15 02:58:57;;;;;;;45.90;35.83;;;;;;;;;;5038966;28;20418;-78
2022/10/15 03:01:23;;;;;;;47.58;35.10;;;;;;;;;;5056178;28;20067;-78
2022/10/15 03:03:49;;;;;;;45.03;35.78;;;;;;;;;;5056612;28;20025;-77
2022/10/15 03:06:15;;;;;;;46.10;34.13;;;;;;;;;;5056723;28;20078;-77
2022/10/15 03:08:41;;;;;;;51.25;35.22;;;;;;;;;;5056465;28;20359;-77
2022/10/15 03:11:08;;;;;;;46.25;33.58;;;;;;;;;;5056774;28;20104;-77
2022/10/15 03:13:37;;;;;;;43.83;34.67;;;;;;;;;;5040237;28;20021;-77
2022/10/15 03:16:05;;;;;;;43.47;34.78;;;;;;;;;;5056091;28;20028;-78
2022/10/15 03:18:31;;;;;;;45.50;33.22;;;;;;;;;;5056231;28;20021;-77
2022/10/15 03:20:57;;;;;;;46.28;33.83;;;;;;;;;;5056667;28;20395;-77
2022/10/15 03:23:24;;;;;;;43.60;32.35;;;;;;;;;;5059318;28;20028;-77
2022/10/15 03:25:51;;;;;;;40.30;31.67;;;;;;;;;;5059016;28;20119;-77
2022/10/15 03:28:17;;;;;;;39.90;32.90;;;;;;;;;;5070702;28;20032;-77
2022/10/15 03:30:43;;;;;;;38.22;30.10;;;;;;;;;;5060701;28;20025;-77
2022/10/15 03:33:09;;;;;;;39.95;30.40;;;;;;;;;;5061063;28;20057;-77
2022/10/15 03:35:35;;;;;;;43.08;31.60;;;;;;;;;;5060899;28;20024;-77
2022/10/15 03:38:01;;;;;;;42.28;31.75;;;;;;;;;;5060274;28;20100;-77
2022/10/15 03:40:27;;;;;;;41.17;30.00;;;;;;;;;;5060468;28;20024;-77
2022/10/15 03:42:55;;;;;;;38.05;28.60;;;;;;;;;;5060526;28;20013;-77
2022/10/15 03:45:21;;;;;;;39.63;28.30;;;;;;;;;;5060404;28;20242;-77
2022/10/15 03:47:47;;;;;;;37.15;27.27;;;;;;;;;;5060454;28;20415;-77
2022/10/15 03:50:13;;;;;;;35.35;25.75;;;;;;;;;;5060570;28;20095;-77
2022/10/15 03:52:39;;;;;;;33.30;25.30;;;;;;;;;;5060191;28;20320;-77
2022/10/15 03:55:06;;;;;;;38.22;23.98;;;;;;;;;;5060270;28;20029;-77
2022/10/15 03:57:32;;;;;;;30.33;21.65;;;;;;;;;;5060498;28;20068;-77
2022/10/15 03:59:58;;;;;;;28.38;20.83;;;;;;;;;;5060109;28;20025;-78
2022/10/15 04:02:24;;;;;;;25.50;18.75;;;;;;;;;;5042582;28;20429;-77
2022/10/15 04:04:54;;;;;;;24.30;17.30;;;;;;;;;;5042079;28;20064;-78
2022/10/15 04:07:20;;;;;;;26.85;17.95;;;;;;;;;;5059822;28;20048;-77
2022/10/15 04:09:47;;;;;;;24.13;17.00;;;;;;;;;;5059861;28;20025;-77
2022/10/15 04:12:13;;;;;;;25.95;16.02;;;;;;;;;;5060101;28;20434;-77
2022/10/15 04:14:39;;;;;;;28.63;17.95;;;;;;;;;;5059816;28;20414;-77
2022/10/15 04:17:06;;;;;;;22.65;17.08;;;;;;;;;;5059924;28;20107;-77
2022/10/15 04:19:32;;;;;;;22.27;16.95;;;;;;;;;;5060052;28;20017;-77
2022/10/15 04:21:58;;;;;;;26.63;17.23;;;;;;;;;;5059728;28;20028;-77
2022/10/15 04:24:24;;;;;;;27.05;17.23;;;;;;;;;;5063481;28;20029;-77
2022/10/15 04:26:50;;;;;;;23.35;16.58;;;;;;;;;;5047997;28;20048;-77
2022/10/15 04:29:16;;;;;;;27.35;17.13;;;;;;;;;;5065737;28;20418;-77
2022/10/15 04:31:42;;;;;;;28.90;17.33;;;;;;;;;;5060673;28;20399;-77
2022/10/15 04:34:08;;;;;;;24.00;16.65;;;;;;;;;;5060825;28;20024;-78
2022/10/15 04:36:34;;;;;;;22.33;14.65;;;;;;;;;;5060633;28;20028;-77
2022/10/15 04:39:01;;;;;;;22.50;15.10;;;;;;;;;;5059653;28;20052;-78
2022/10/15 04:41:27;;;;;;;24.48;15.00;;;;;;;;;;5060468;28;20028;-78
2022/10/15 04:43:54;;;;;;;22.17;14.20;;;;;;;;;;5060517;28;20047;-77
2022/10/15 04:46:21;;;;;;;17.80;12.50;;;;;;;;;;5058984;28;20498;-77
2022/10/15 04:48:47;;;;;;;18.55;12.88;;;;;;;;;;5069645;28;20108;-78
2022/10/15 04:51:15;;;;;;;16.30;12.77;;;;;;;;;;5072159;28;20055;-78
2022/10/15 04:53:41;;;;;;;19.52;12.15;;;;;;;;;;5059940;28;20075;-77
2022/10/15 04:56:10;;;;;;;18.17;12.00;;;;;;;;;;5073600;28;20036;-78
2022/10/15 04:58:36;;;;;;;20.15;13.23;;;;;;;;;;5069484;28;20355;-78
2022/10/15 05:01:04;;;;;;;19.42;13.20;;;;;;;;;;5077463;28;20028;-77
2022/10/15 05:03:30;;;;;;;17.83;13.48;;;;;;;;;;5077601;28;20028;-77
2022/10/15 05:06:03;;;;;;;17.83;12.18;;;;;;;;;;5075952;28;20051;-77
2022/10/15 05:08:30;;;;;;;22.85;14.00;;;;;;;;;;5053238;28;20033;-77
2022/10/15 05:10:59;;;;;;;17.25;13.13;;;;;;;;;;5060294;28;20407;-77
2022/10/15 05:13:25;;;;;;;23.67;13.80;;;;;;;;;;5059808;28;20037;-77
2022/10/15 05:15:51;;;;;;;21.63;13.60;;;;;;;;;;5059783;28;20153;-77
2022/10/15 05:18:17;;;;;;;23.30;14.52;;;;;;;;;;5074148;28;20133;-77
2022/10/15 05:20:43;;;;;;;21.10;13.25;;;;;;;;;;5043931;28;20127;-77
2022/10/15 05:23:09;;;;;;;23.58;13.98;;;;;;;;;;5074601;28;20116;-76
2022/10/15 05:25:35;;;;;;;26.42;15.10;;;;;;;;;;5059527;28;20033;-77
2022/10/15 05:28:01;;;;;;;23.83;14.52;;;;;;;;;;5059665;28;20029;-76
2022/10/15 05:30:27;;;;;;;22.38;15.05;;;;;;;;;;5068575;28;20033;-76
2022/10/15 05:32:54;;;;;;;21.17;14.32;;;;;;;;;;5060281;28;20358;-77
2022/10/15 05:35:20;;;;;;;23.60;14.45;;;;;;;;;;5058538;28;20028;-77
2022/10/15 05:37:46;;;;;;;21.05;15.02;;;;;;;;;;5062342;28;20037;-77
2022/10/15 05:40:12;;;;;;;20.77;14.73;;;;;;;;;;5059490;28;20053;-77
2022/10/15 05:42:38;;;;;;;25.60;14.93;;;;;;;;;;5059330;28;20064;-77
2022/10/15 05:45:04;;;;;;;28.05;16.40;;;;;;;;;;5059201;28;20079;-77
2022/10/15 05:47:30;;;;;;;24.38;14.52;;;;;;;;;;5059962;28;20059;-76
2022/10/15 05:49:56;;;;;;;26.55;17.40;;;;;;;;;;5063403;28;20060;-76
2022/10/15 05:52:22;;;;;;;28.40;17.38;;;;;;;;;;5076321;28;20069;-76
2022/10/15 05:54:48;;;;;;;22.80;15.13;;;;;;;;;;5078147;28;20075;-77
2022/10/15 05:57:14;;;;;;;27.33;17.13;;;;;;;;;;5066731;28;20414;-77
2022/10/15 05:59:40;;;;;;;31.00;16.63;;;;;;;;;;5059030;28;20087;-77
2022/10/15 06:02:06;;;;;;;25.60;17.48;;;;;;;;;;5058821;28;20144;-78
2022/10/15 06:04:32;;;;;;;27.00;16.65;;;;;;;;;;5057836;28;20370;-78
2022/10/15 06:06:58;;;;;;;34.28;17.58;;;;;;;;;;5058799;28;20053;-77
2022/10/15 06:09:25;;;;;;;25.52;16.83;;;;;;;;;;5059737;28;20427;-78
2022/10/15 06:11:51;;;;;;;26.42;17.10;;;;;;;;;;5058941;28;20112;-77
2022/10/15 06:14:17;;;;;;;27.80;16.73;;;;;;;;;;5040862;28;20364;-77
2022/10/15 06:16:43;;;;;;;24.17;16.48;;;;;;;;;;5058718;28;20032;-77
2022/10/15 06:19:09;;;;;;;27.95;16.63;;;;;;;;;;5057860;28;20029;-77
2022/10/15 06:21:35;;;;;;;28.58;17.90;;;;;;;;;;5058578;28;20047;-77
2022/10/15 06:24:01;;;;;;;27.40;17.85;;;;;;;;;;5057366;28;20040;-77
2022/10/15 06:26:27;;;;;;;27.50;18.08;;;;;;;;;;5047770;28;20045;-77
2022/10/15 06:28:54;;;;;;;26.33;17.30;;;;;;;;;;5073880;28;20104;-78
2022/10/15 06:31:20;;;;;;;22.17;16.80;;;;;;;;;;5075487;28;20028;-78
2022/10/15 06:33:46;;;;;;;28.08;17.38;;;;;;;;;;5077876;28;20038;-78
2022/10/15 06:36:12;;;;;;;30.60;17.00;;;;;;;;;;5075658;28;20133;-78
2022/10/15 06:38:38;;;;;;;25.92;17.85;;;;;;;;;;5057884;28;20025;-79
2022/10/15 06:41:05;;;;;;;28.75;17.15;;;;;;;;;;5071286;28;20021;-78
2022/10/15 06:43:31;;;;;;;29.30;19.45;;;;;;;;;;5075367;28;20103;-77
2022/10/15 06:45:58;;;;;;;31.17;17.98;;;;;;;;;;5075476;28;20036;-77
2022/10/15 06:48:24;;;;;;;33.60;19.10;;;;;;;;;;5075579;28;20056;-78
2022/10/15 06:50:50;;;;;;;29.58;19.95;;;;;;;;;;5057572;28;20033;-77
2022/10/15 06:53:16;;;;;;;33.10;18.70;;;;;;;;;;5074596;28;20044;-77
2022/10/15 06:55:42;;;;;;;28.75;17.40;;;;;;;;;;5074794;28;20044;-77
2022/10/15 06:58:08;;;;;;;29.67;16.63;;;;;;;;;;5060724;28;20025;-77
2022/10/15 07:00:34;;;;;;;27.60;16.98;;;;;;;;;;5057921;28;20078;-77
2022/10/15 07:03:04;;;;;;;26.20;16.55;;;;;;;;;;5062625;28;20025;-77
2022/10/15 07:05:30;;;;;;;28.13;16.30;;;;;;;;;;5073188;28;20028;-77
2022/10/15 07:07:57;;;;;;;40.83;17.35;;;;;;;;;;5045658;28;20046;-76
2022/10/15 07:10:23;;;;;;;28.92;17.70;;;;;;;;;;5076928;28;20317;-76
2022/10/15 07:12:49;;;;;;;26.73;15.68;;;;;;;;;;5075072;28;20043;-77
2022/10/15 07:15:16;;;;;;;42.28;18.23;;;;;;;;;;5076828;28;20429;-76
2022/10/15 07:17:46;;;;;;;28.65;16.63;;;;;;;;;;5059621;28;20029;-76
2022/10/15 07:20:12;;;;;;;26.65;16.13;;;;;;;;;;5057040;28;20033;-77
2022/10/15 07:22:38;;;;;;;27.02;16.10;;;;;;;;;;5057647;28;20327;-77
2022/10/15 07:25:04;;;;;;;33.10;18.05;;;;;;;;;;5056684;28;20036;-76
2022/10/15 07:27:30;;;;;;;32.90;17.02;;;;;;;;;;5046603;28;20036;-76
2022/10/15 07:29:56;;;;;;;28.85;14.98;;;;;;;;;;5060353;28;20092;-76
2022/10/15 07:32:22;;;;;;;31.33;16.65;;;;;;;;;;5057618;28;20037;-76
2022/10/15 07:34:48;;;;;;;25.25;16.88;;;;;;;;;;5056455;28;20395;-76
2022/10/15 07:37:14;;;;;;;25.83;15.10;;;;;;;;;;5057585;28;20112;-76
2022/10/15 07:39:40;;;;;;;26.60;14.80;;;;;;;;;;5043512;28;20124;-76
2022/10/15 07:42:06;;;;;;;30.55;15.52;;;;;;;;;;5056522;28;20104;-77
2022/10/15 07:44:32;;;;;;;23.55;14.75;;;;;;;;;;5065084;28;20416;-76
2022/10/15 07:46:58;;;;;;;28.00;16.90;;;;;;;;;;5062830;28;20104;-76
2022/10/15 07:49:24;;;;;;;24.17;15.00;;;;;;;;;;5056602;28;20031;-77
2022/10/15 07:51:50;;;;;;;23.10;14.45;;;;;;;;;;5072527;28;20043;-77
2022/10/15 07:54:16;;;;;;;29.55;16.33;;;;;;;;;;5074553;28;20039;-77
2022/10/15 07:56:42;;;;;;;25.10;14.80;;;;;;;;;;5070013;28;20097;-77
2022/10/15 07:59:08;;;;;;;23.45;14.57;;;;;;;;;;5057520;28;20049;-78
2022/10/15 08:01:34;;;;;;;26.00;15.15;;;;;;;;;;5057712;28;20045;-77
2022/10/15 08:04:00;;;;;;;26.35;13.73;;;;;;;;;;5057612;28;20044;-77
2022/10/15 08:06:26;;;;;;;21.38;15.25;;;;;;;;;;5038629;28;20433;-77
2022/10/15 08:08:53;;;;;;;26.80;14.60;;;;;;;;;;5070119;28;20115;-77
2022/10/15 08:11:19;;;;;;;26.65;14.63;;;;;;;;;;5058331;28;20119;-77
2022/10/15 08:13:47;;;;;;;19.08;13.60;;;;;;;;;;5058324;28;20025;-75
2022/10/15 08:16:14;;;;;;;27.08;12.55;;;;;;;;;;5078006;28;20295;-75
2022/10/15 08:18:40;;;;;;;22.00;11.65;;;;;;;;;;5079892;28;20119;-75
2022/10/15 08:21:07;;;;;;;25.95;12.73;;;;;;;;;;5079697;28;20296;-75
2022/10/15 08:23:33;;;;;;;30.08;12.77;;;;;;;;;;5061718;28;20032;-76
2022/10/15 08:25:59;;;;;;;18.58;12.40;;;;;;;;;;5060810;28;20153;-75
2022/10/15 08:28:29;;;;;;;26.08;12.07;;;;;;;;;;5057466;28;20326;-76
2022/10/15 08:30:57;;;;;;;24.17;12.25;;;;;;;;;;5061233;28;20049;-75
2022/10/15 08:33:23;;;;;;;24.05;11.45;;;;;;;;;;5042285;28;20071;-75
2022/10/15 08:35:49;;;;;;;21.63;12.27;;;;;;;;;;5060624;28;20056;-76
2022/10/15 08:38:15;;;;;;;26.58;13.52;;;;;;;;;;5060536;28;20083;-76
2022/10/15 08:40:45;;;;;;;18.70;11.00;;;;;;;;;;5060507;28;20314;-76
2022/10/15 08:43:32;;;;;;;27.30;11.35;;;;;;;;;;5060442;28;20024;-76
2022/10/15 08:46:01;;;;;;;20.25;12.05;;;;;;;;;;4978129;28;20409;-76
2022/10/15 08:48:38;;;;;;;21.98;12.65;;;;;;;;;;4992169;28;20044;-77
2022/10/15 08:51:13;;;;;;;17.33;11.15;;;;;;;;;;4990501;28;20047;-76
2022/10/15 08:53:44;;;;;;;15.02;11.00;;;;;;;;;;4978365;28;20123;-76
2022/10/15 08:56:14;;;;;;;20.00;10.95;;;;;;;;;;4978598;28;20038;-76
2022/10/15 08:58:57;;;;;;;18.33;10.40;;;;;;;;;;4978584;28;20027;-76
2022/10/15 09:01:37;;;;;;;33.47;14.65;;;;;;;;;;4978429;28;20309;-76
2022/10/15 09:04:19;;;;;;;21.63;9.98;;;;;;;;;;4978533;28;20303;-76
2022/10/15 09:06:46;;;;;;;15.40;9.45;;;;;;;;;;4978489;28;20069;-77
2022/10/15 09:09:22;;;;;;;18.65;9.30;;;;;;;;;;4962197;28;20035;-77
2022/10/15 09:12:06;;;;;;;20.98;9.65;;;;;;;;;;4978475;28;20092;-77
2022/10/15 09:14:34;;;;;;;25.70;9.32;;;;;;;;;;4978247;28;20031;-77
2022/10/15 09:17:03;;;;;;;15.45;9.60;;;;;;;;;;4978280;28;20465;-77
2022/10/15 09:19:31;;;;;;;19.73;10.57;;;;;;;;;;4978254;28;20062;-77
2022/10/15 09:22:00;;;;;;;22.90;11.63;;;;;;;;;;4982511;28;20325;-77
2022/10/15 09:24:28;;;;;;;16.30;9.95;;;;;;;;;;5058415;28;20037;-78
2022/10/15 09:27:00;;;;;;;17.45;9.63;;;;;;;;;;5058756;28;20028;-77
2022/10/15 09:29:26;;;;;;;20.90;10.80;;;;;;;;;;5058729;28;20048;-77
2022/10/15 09:31:55;;;;;;;21.52;9.68;;;;;;;;;;5057066;28;20072;-77
2022/10/15 09:34:24;;;;;;;14.55;8.73;;;;;;;;;;5058587;28;20024;-77
2022/10/15 09:36:54;;;;;;;15.57;9.70;;;;;;;;;;5058329;28;20449;-78
2022/10/15 09:39:23;;;;;;;18.73;9.52;;;;;;;;;;5058220;28;20100;-77
2022/10/15 09:41:50;;;;;;;20.15;10.27;;;;;;;;;;5058255;28;20033;-77
2022/10/15 09:44:17;;;;;;;17.95;10.38;;;;;;;;;;5058306;28;20017;-76
2022/10/15 09:46:44;;;;;;;15.35;9.10;;;;;;;;;;5058357;28;20033;-77
2022/10/15 09:49:17;;;;;;;18.27;9.15;;;;;;;;;;5058215;28;20029;-77
2022/10/15 09:51:48;;;;;;;16.00;8.57;;;;;;;;;;5058165;28;20032;-77
2022/10/15 09:54:19;;;;;;;23.65;10.93;;;;;;;;;;5039945;28;20041;-77
2022/10/15 09:56:47;;;;;;;18.80;8.50;;;;;;;;;;5058080;28;20041;-77
2022/10/15 09:59:17;;;;;;;19.38;8.10;;;;;;;;;;5057933;28;20026;-77
2022/10/15 10:02:00;;;;;;;22.23;8.50;;;;;;;;;;5057957;28;20087;-78
2022/10/15 10:04:28;;;;;;;17.65;8.88;;;;;;;;;;5058053;28;20016;-78
2022/10/15 10:06:56;;;;;;;16.08;8.75;;;;;;;;;;5058026;28;20063;-77
2022/10/15 10:09:31;;;;;;;16.75;8.38;;;;;;;;;;5057708;28;20021;-77
2022/10/15 10:12:01;;;;;;;21.98;9.00;;;;;;;;;;5057789;28;20075;-77
2022/10/15 10:14:30;;;;;;;13.77;8.85;;;;;;;;;;5057772;28;20017;-76
2022/10/15 10:17:18;;;;;;;16.20;8.65;;;;;;;;;;5057790;28;20386;-77
2022/10/15 10:19:45;;;;;;;17.80;8.02;;;;;;;;;;5057665;28;20031;-75
2022/10/15 10:22:20;;;;;;;13.00;8.38;;;;;;;;;;5057529;28;20017;-73
2022/10/15 10:24:47;;;;;;;18.70;10.20;;;;;;;;;;5057408;28;20021;-73
2022/10/15 10:27:22;;;;;;;17.27;8.85;;;;;;;;;;5057726;28;20039;-79
2022/10/15 10:29:51;;;;;;;17.02;8.73;;;;;;;;;;5057400;28;20021;-78
2022/10/15 10:32:27;;;;;;;14.27;8.70;;;;;;;;;;5057573;28;20025;-78
2022/10/15 10:34:53;;;;;;;19.30;8.80;;;;;;;;;;5057086;28;20021;-78
2022/10/15 10:37:20;;;;;;;13.15;9.10;;;;;;;;;;5056398;28;20391;-78
2022/10/15 10:39:51;;;;;;;14.45;8.75;;;;;;;;;;5057145;28;20411;-78
2022/10/15 10:42:18;;;;;;;17.88;9.68;;;;;;;;;;5057094;28;20032;-78
2022/10/15 10:44:45;;;;;;;14.30;8.63;;;;;;;;;;5057266;28;20074;-78
2022/10/15 10:47:31;;;;;;;20.40;7.65;;;;;;;;;;5057019;28;20033;-78
2022/10/15 10:49:58;;;;;;;13.38;8.00;;;;;;;;;;5055584;28;20106;-78
2022/10/15 10:52:23;;;;;;;19.42;8.90;;;;;;;;;;5057061;28;20072;-78
2022/10/15 10:55:13;;;;;;;12.15;7.07;;;;;;;;;;5056912;28;20436;-78
2022/10/15 10:57:50;;;;;;;17.40;7.85;;;;;;;;;;4996183;28;20108;-78
2022/10/15 11:00:19;;;;;;;15.00;8.15;;;;;;;;;;4995889;28;20027;-78
2022/10/15 11:02:45;;;;;;;9.80;7.60;;;;;;;;;;4995861;28;20026;-78
2022/10/15 11:05:11;;;;;;;15.15;8.50;;;;;;;;;;4995887;28;20440;-78
2022/10/15 11:07:53;;;;;;;22.25;10.05;;;;;;;;;;4995458;28;20038;-78
2022/10/15 11:10:27;;;;;;;11.75;7.85;;;;;;;;;;4995786;28;20026;-78
2022/10/15 11:12:53;;;;;;;15.18;8.45;;;;;;;;;;4995715;28;20030;-78
2022/10/15 11:15:32;;;;;;;16.15;8.93;;;;;;;;;;4995493;28;20080;-78
2022/10/15 11:18:07;;;;;;;14.82;7.50;;;;;;;;;;4995670;28;20313;-70
2022/10/15 11:20:59;;;;;;;15.10;8.80;;;;;;;;;;4995428;28;20031;-69
2022/10/15 11:23:50;;;;;;;16.00;8.70;;;;;;;;;;4990352;28;20058;-70
2022/10/15 11:26:28;;;;;;;20.40;14.15;;;;;;;;;;4956923;29;20367;-70
2022/10/15 11:29:09;;;;;;;21.67;12.60;;;;;;;;;;4957105;29;20318;-70
2022/10/15 11:31:43;;;;;;;17.92;8.45;;;;;;;;;;4956874;29;20114;-70
2022/10/15 11:34:12;;;;;;;16.50;8.00;;;;;;;;;;4962189;28;20038;-70
2022/10/15 11:36:52;;;;;;;17.05;8.27;;;;;;;;;;4975989;28;20050;-70
2022/10/15 11:39:21;;;;;;;15.20;7.15;;;;;;;;;;4976099;28;20019;-70
2022/10/15 11:41:52;;;;;;;15.40;7.32;;;;;;;;;;4976060;28;20307;-70
2022/10/15 11:44:18;;;;;;;16.05;7.10;;;;;;;;;;4976013;28;20031;-70
2022/10/15 11:46:46;;;;;;;12.90;7.18;;;;;;;;;;4976010;28;20038;-70
2022/10/15 11:49:26;;;;;;;15.55;8.55;;;;;;;;;;4979567;28;20046;-72
2022/10/15 11:52:06;;;;;;;13.80;7.75;;;;;;;;;;4979578;28;20058;-73
2022/10/15 11:54:52;;;;;;;21.60;8.90;;;;;;;;;;4979642;28;20122;-84
2022/10/15 11:57:20;;;;;;;12.75;6.78;;;;;;;;;;4979738;28;20106;-80
2022/10/15 11:59:59;;;;;;;11.63;7.47;;;;;;;;;;4979632;28;20542;-75
2022/10/15 12:02:28;;;;;;;24.50;8.30;;;;;;;;;;4996129;28;20083;-65
2022/10/15 12:04:58;;;;;;;15.35;8.15;;;;;;;;;;5060268;28;20068;-65
2022/10/15 12:07:30;;;;;;;17.02;7.57;;;;;;;;;;5060106;28;20103;-70
2022/10/15 12:10:01;;;;;;;18.40;7.13;;;;;;;;;;5060270;28;20063;-64
2022/10/15 12:12:27;;;;;;;12.60;6.10;;;;;;;;;;5060021;28;20108;-65
2022/10/15 12:15:02;;;;;;;12.55;6.78;;;;;;;;;;5059929;28;20057;-65
2022/10/15 12:18:06;;;;;;;15.18;6.70;;;;;;;;;;5060138;28;20021;-65
2022/10/15 12:20:32;;;;;;;10.85;6.38;;;;;;;;;;4998581;28;20028;-65
2022/10/15 12:22:59;;;;;;;14.52;6.68;;;;;;;;;;4998732;28;20030;-65
2022/10/15 12:25:34;;;;;;;14.43;7.15;;;;;;;;;;4998668;28;20079;-65
2022/10/15 12:28:21;;;;;;;11.57;6.32;;;;;;;;;;4998740;28;20030;-66
2022/10/15 12:30:54;;;;;;;12.15;6.25;;;;;;;;;;4998596;28;20037;-65
2022/10/15 12:33:24;;;;;;;13.25;7.10;;;;;;;;;;4998534;28;20413;-65
2022/10/15 12:35:57;;;;;;;16.52;6.95;;;;;;;;;;4998400;28;20026;-65
2022/10/15 12:38:28;;;;;;;18.58;6.43;;;;;;;;;;4998494;28;20030;-65
2022/10/15 12:40:55;;;;;;;15.97;6.50;;;;;;;;;;4998545;28;20026;-65
2022/10/15 12:43:21;;;;;;;8.32;5.78;;;;;;;;;;4998183;28;20404;-65
2022/10/15 12:45:49;;;;;;;10.35;6.40;;;;;;;;;;4998428;28;20154;-65
2022/10/15 12:48:15;;;;;;;10.32;6.07;;;;;;;;;;4998358;28;20077;-65
2022/10/15 12:50:42;;;;;;;11.70;5.88;;;;;;;;;;5014545;28;20041;-65
2022/10/15 12:53:28;;;;;;;12.15;5.50;;;;;;;;;;5058932;28;20049;-65
2022/10/15 12:56:09;;;;;;;14.38;6.28;;;;;;;;;;5059020;28;20048;-65
2022/10/15 12:58:37;;;;;;;14.75;5.97;;;;;;;;;;5058985;28;20029;-65
2022/10/15 13:01:25;;;;;;;10.57;5.30;;;;;;;;;;5059048;28;20383;-65
2022/10/15 13:03:51;;;;;;;9.75;6.45;;;;;;;;;;5058968;28;20091;-65
2022/10/15 13:06:21;;;;;;;12.20;5.88;;;;;;;;;;5059247;28;20087;-65
2022/10/15 13:09:07;;;;;;;12.38;6.35;;;;;;;;;;5059081;28;20029;-65
2022/10/15 13:11:44;;;;;;;10.80;6.43;;;;;;;;;;4997484;28;20035;-65
2022/10/15 13:14:29;;;;;;;7.15;5.18;;;;;;;;;;4997769;28;20034;-65
2022/10/15 13:16:56;;;;;;;17.25;6.15;;;;;;;;;;4997637;28;20042;-65
2022/10/15 13:19:23;;;;;;;16.05;6.85;;;;;;;;;;4997777;28;20029;-65
2022/10/15 13:21:56;;;;;;;9.82;5.35;;;;;;;;;;4997581;28;20030;-65
2022/10/15 13:24:23;;;;;;;13.82;6.65;;;;;;;;;;4997581;28;20442;-65
2022/10/15 13:26:50;;;;;;;11.15;6.28;;;;;;;;;;4997651;28;20026;-66
2022/10/15 13:29:17;;;;;;;13.63;7.07;;;;;;;;;;4996276;28;20049;-66
2022/10/15 13:31:43;;;;;;;15.73;7.18;;;;;;;;;;4995013;28;20478;-65
2022/10/15 13:34:09;;;;;;;8.35;6.10;;;;;;;;;;4994911;28;20054;-65
2022/10/15 13:36:35;;;;;;;12.35;6.35;;;;;;;;;;4996287;28;20054;-65
2022/10/15 13:39:06;;;;;;;10.65;6.72;;;;;;;;;;4997172;28;20030;-65
2022/10/15 13:41:36;;;;;;;13.40;7.57;;;;;;;;;;4997290;28;20365;-65
2022/10/15 13:44:03;;;;;;;15.65;7.95;;;;;;;;;;4997095;28;20030;-65
2022/10/15 13:46:31;;;;;;;9.73;5.70;;;;;;;;;;4997113;28;20027;-65
2022/10/15 13:48:58;;;;;;;11.57;5.93;;;;;;;;;;5036520;28;20064;-65
2022/10/15 13:51:28;;;;;;;9.15;6.35;;;;;;;;;;5058082;28;20029;-65
2022/10/15 13:53:55;;;;;;;13.55;6.85;;;;;;;;;;5057860;28;20378;-65
2022/10/15 13:56:24;;;;;;;15.48;6.35;;;;;;;;;;5057991;28;20045;-65
2022/10/15 13:58:50;;;;;;;14.23;6.25;;;;;;;;;;5058006;28;20028;-65
2022/10/15 14:01:17;;;;;;;10.68;6.65;;;;;;;;;;5057973;28;20067;-65
2022/10/15 14:03:53;;;;;;;15.00;6.57;;;;;;;;;;5058006;28;20021;-65
2022/10/15 14:06:21;;;;;;;12.70;6.65;;;;;;;;;;5058250;28;20021;-65
2022/10/15 14:08:48;;;;;;;12.65;5.43;;;;;;;;;;5057906;28;20025;-65
2022/10/15 14:11:14;;;;;;;8.70;5.70;;;;;;;;;;5057286;28;20017;-65
2022/10/15 14:13:48;;;;;;;13.98;5.95;;;;;;;;;;5057795;28;20354;-65
2022/10/15 14:16:14;;;;;;;10.60;6.25;;;;;;;;;;5057743;28;20039;-65
2022/10/15 14:18:45;;;;;;;12.82;6.88;;;;;;;;;;5057754;28;20025;-65
2022/10/15 14:21:12;;;;;;;11.68;5.68;;;;;;;;;;5057737;28;20029;-65
2022/10/15 14:23:39;;;;;;;11.98;6.32;;;;;;;;;;5057750;28;20028;-65
2022/10/15 14:26:05;;;;;;;19.67;8.80;;;;;;;;;;5057720;28;20051;-65
2022/10/15 14:28:32;;;;;;;30.42;14.23;;;;;;;;;;5057389;28;20033;-65
2022/10/15 14:30:58;;;;;;;40.80;18.48;;;;;;;;;;5056524;28;20021;-65